Time;durP1;ratioP1;P1;durP2;ratioP2;P2;SDS_P1;SDS_P2;PMS_P1;PMS_P2;Temp;Humidity;BMP_temperature;BMP_pressure;BME280_temperature;BME280_humidity;BME280_pressure;Samples;Min_cycle;Max_cycle;Signal;HPM_P1;HPM_P2
2021/05/04 00:02:03;;;;;;;11.70;8.55;;;10.40;72.40;;;;;;5007176;28;20124;-85
2021/05/04 00:04:30;;;;;;;11.20;9.02;;;10.60;71.00;;;;;;4992757;28;20561;-85
2021/05/04 00:06:56;;;;;;;12.05;9.32;;;10.60;71.40;;;;;;5009585;28;20054;-84
2021/05/04 00:09:22;;;;;;;10.95;9.20;;;10.50;72.10;;;;;;5023064;28;20101;-85
2021/05/04 00:11:48;;;;;;;10.77;9.23;;;10.50;72.40;;;;;;5035078;28;20123;-84
2021/05/04 00:14:14;;;;;;;11.43;9.65;;;10.50;73.10;;;;;;5021818;28;20046;-85
2021/05/04 00:16:40;;;;;;;10.82;9.40;;;10.40;73.60;;;;;;5004664;28;20049;-85
2021/05/04 00:19:06;;;;;;;11.18;9.00;;;10.30;74.00;;;;;;5046521;28;20053;-85
2021/05/04 00:21:31;;;;;;;10.73;9.63;;;10.30;73.70;;;;;;5033596;28;20057;-85
2021/05/04 00:23:57;;;;;;;10.80;9.68;;;10.30;74.00;;;;;;5032492;28;20419;-86
2021/05/04 00:26:24;;;;;;;11.55;10.13;;;10.30;74.40;;;;;;5027069;28;20505;-85
2021/05/04 00:28:49;;;;;;;13.05;10.38;;;10.30;75.50;;;;;;5037522;28;20042;-86
2021/05/04 00:31:15;;;;;;;13.35;11.65;;;10.30;76.20;;;;;;5021648;28;20045;-85
2021/05/04 00:33:41;;;;;;;15.23;11.48;;;10.40;77.60;;;;;;5016958;28;20072;-87
2021/05/04 00:36:07;;;;;;;12.90;11.45;;;10.40;78.30;;;;;;5030491;28;20053;-89
2021/05/04 00:38:33;;;;;;;12.90;11.55;;;10.10;79.50;;;;;;5013673;28;20045;-87
2021/05/04 00:40:59;;;;;;;13.00;11.70;;;10.00;80.30;;;;;;4998099;28;20061;-86
2021/05/04 00:43:30;;;;;;;14.93;11.75;;;9.80;80.70;;;;;;5019202;28;20053;-86
2021/05/04 00:45:56;;;;;;;14.45;11.50;;;9.80;81.50;;;;;;5048566;28;20048;-87
2021/05/04 00:48:23;;;;;;;13.73;11.82;;;9.60;81.80;;;;;;5051646;28;20075;-87
2021/05/04 00:50:49;;;;;;;12.43;11.15;;;9.60;82.70;;;;;;5051144;28;20048;-86
2021/05/04 00:53:15;;;;;;;13.82;11.68;;;9.60;83.10;;;;;;5053167;28;20059;-88
2021/05/04 00:55:42;;;;;;;17.98;12.27;;;9.50;83.60;;;;;;5055010;28;20474;-91
2021/05/04 00:58:11;;;;;;;13.32;11.57;;;9.50;84.80;;;;;;5052583;28;20049;-89
2021/05/04 01:00:37;;;;;;;13.98;11.68;;;9.40;85.20;;;;;;5051238;28;20436;-88
2021/05/04 01:03:05;;;;;;;12.90;11.35;;;9.30;86.20;;;;;;5052128;28;20088;-88
2021/05/04 01:05:31;;;;;;;12.45;11.20;;;9.30;86.80;;;;;;5049112;28;20427;-88
2021/05/04 01:07:57;;;;;;;13.68;11.50;;;9.30;87.30;;;;;;5050902;28;20049;-86
2021/05/04 01:10:23;;;;;;;15.93;11.90;;;9.20;87.20;;;;;;5047716;28;20120;-87
2021/05/04 01:12:49;;;;;;;13.15;11.40;;;9.20;87.30;;;;;;5051567;28;20059;-89
2021/05/04 01:15:15;;;;;;;12.10;10.90;;;9.10;87.30;;;;;;5052264;28;20045;-86
2021/05/04 01:17:41;;;;;;;12.68;11.38;;;9.10;87.30;;;;;;5066823;28;20053;-86
2021/05/04 01:20:08;;;;;;;12.63;11.20;;;9.00;87.80;;;;;;5049622;28;20053;-88
2021/05/04 01:22:34;;;;;;;13.23;11.38;;;9.00;88.00;;;;;;5049461;28;20053;-86
2021/05/04 01:25:00;;;;;;;12.85;10.63;;;8.90;88.20;;;;;;5053017;28;20107;-85
2021/05/04 01:27:27;;;;;;;13.82;12.07;;;9.00;88.50;;;;;;5050856;28;20049;-88
2021/05/04 01:29:53;;;;;;;13.27;11.20;;;8.90;88.90;;;;;;5050410;28;20048;-89
2021/05/04 01:32:19;;;;;;;13.55;11.48;;;8.90;88.80;;;;;;5050926;28;20045;-89
2021/05/04 01:34:45;;;;;;;13.07;11.07;;;8.90;89.60;;;;;;5050946;28;20053;-88
2021/05/04 01:37:11;;;;;;;12.50;11.13;;;8.90;89.70;;;;;;5049539;28;20045;-90
2021/05/04 01:39:44;;;;;;;14.20;12.10;;;8.80;89.90;;;;;;5050652;28;20045;-88
2021/05/04 01:42:12;;;;;;;12.75;11.15;;;8.80;90.40;;;;;;5034512;28;20045;-87
2021/05/04 01:44:37;;;;;;;14.10;11.52;;;8.80;90.20;;;;;;5049018;28;20052;-82
2021/05/04 01:47:04;;;;;;;13.48;11.80;;;8.80;90.20;;;;;;5051569;28;20063;-82
2021/05/04 01:49:31;;;;;;;12.52;11.10;;;8.70;90.40;;;;;;5031627;28;20099;-85
2021/05/04 01:51:57;;;;;;;12.98;10.95;;;8.70;90.50;;;;;;5049423;28;20071;-85
2021/05/04 01:54:24;;;;;;;11.60;10.40;;;8.60;90.50;;;;;;5047979;28;20439;-85
2021/05/04 01:56:52;;;;;;;12.50;11.20;;;8.60;90.70;;;;;;5048829;28;20056;-85
2021/05/04 01:59:23;;;;;;;12.82;10.65;;;8.60;90.60;;;;;;5048086;28;20049;-85
2021/05/04 02:01:49;;;;;;;13.65;11.55;;;8.60;90.60;;;;;;5044985;28;20054;-83
2021/05/04 02:04:15;;;;;;;12.27;11.05;;;8.60;90.70;;;;;;5037902;28;20056;-90
2021/05/04 02:06:42;;;;;;;13.32;10.95;;;8.60;90.80;;;;;;5042387;28;20118;-85
2021/05/04 02:09:09;;;;;;;12.30;10.60;;;8.60;91.30;;;;;;5032234;28;20498;-85
2021/05/04 02:11:35;;;;;;;12.65;10.82;;;8.60;91.00;;;;;;5049670;28;20064;-83
2021/05/04 02:14:04;;;;;;;12.18;10.75;;;8.50;91.40;;;;;;5029403;28;20141;-85
2021/05/04 02:16:31;;;;;;;11.60;10.40;;;8.50;91.10;;;;;;5032736;28;20056;-84
2021/05/04 02:18:57;;;;;;;12.23;10.75;;;8.50;91.10;;;;;;5049419;28;20045;-84
2021/05/04 02:21:23;;;;;;;11.52;10.23;;;8.50;91.10;;;;;;5047512;28;20398;-83
2021/05/04 02:23:49;;;;;;;11.60;10.02;;;8.60;91.10;;;;;;5031456;28;20044;-85
2021/05/04 02:26:17;;;;;;;11.75;10.60;;;8.60;91.10;;;;;;5026954;28;20053;-87
2021/05/04 02:28:43;;;;;;;12.52;9.95;;;8.50;91.40;;;;;;5049354;28;20108;-86
2021/05/04 02:31:10;;;;;;;11.18;9.95;;;8.50;91.60;;;;;;5049721;28;20055;-87
2021/05/04 02:33:38;;;;;;;11.15;10.00;;;8.50;91.70;;;;;;5049198;28;20119;-86
2021/05/04 02:36:05;;;;;;;12.50;9.95;;;8.50;91.60;;;;;;5039795;28;20064;-86
2021/05/04 02:38:32;;;;;;;13.55;9.98;;;8.40;91.80;;;;;;5038379;28;20068;-85
2021/05/04 02:40:59;;;;;;;12.13;9.48;;;8.50;91.70;;;;;;5044846;28;20049;-85
2021/05/04 02:43:25;;;;;;;11.00;9.90;;;8.40;91.70;;;;;;5047214;28;20131;-86
2021/05/04 02:45:51;;;;;;;13.32;9.23;;;8.40;91.90;;;;;;5049403;28;20052;-85
2021/05/04 02:48:17;;;;;;;11.10;9.27;;;8.40;91.80;;;;;;5048979;28;20493;-88
2021/05/04 02:50:43;;;;;;;11.50;9.40;;;8.40;91.80;;;;;;5050517;28;20053;-86
2021/05/04 02:53:09;;;;;;;10.65;9.30;;;8.40;91.90;;;;;;5046015;28;20053;-86
2021/05/04 02:55:35;;;;;;;10.43;9.32;;;8.40;92.00;;;;;;5048976;28;20036;-86
2021/05/04 02:58:01;;;;;;;10.55;8.48;;;8.40;92.10;;;;;;5048418;28;20068;-86
2021/05/04 03:00:27;;;;;;;10.52;9.32;;;8.40;92.10;;;;;;5048626;28;20051;-86
2021/05/04 03:02:53;;;;;;;10.45;8.98;;;8.40;92.40;;;;;;5049048;28;20417;-86
2021/05/04 03:05:18;;;;;;;11.95;9.70;;;8.40;92.40;;;;;;5048542;28;20585;-86
2021/05/04 03:07:45;;;;;;;9.77;8.77;;;8.40;92.50;;;;;;5048322;28;20137;-86
2021/05/04 03:10:11;;;;;;;11.52;9.65;;;8.40;92.70;;;;;;5050158;28;20045;-85
2021/05/04 03:12:37;;;;;;;11.27;9.30;;;8.40;92.80;;;;;;5044239;28;20072;-84
2021/05/04 03:15:04;;;;;;;11.02;9.00;;;8.40;92.90;;;;;;5039380;28;20099;-86
2021/05/04 03:17:30;;;;;;;9.95;8.60;;;8.40;92.90;;;;;;5045209;28;20459;-86
2021/05/04 03:19:56;;;;;;;10.68;8.90;;;8.40;93.30;;;;;;5049044;28;20079;-88
2021/05/04 03:22:22;;;;;;;9.63;8.23;;;8.30;93.20;;;;;;5047419;28;20068;-85
2021/05/04 03:24:48;;;;;;;9.65;8.10;;;8.40;93.10;;;;;;5047438;28;20129;-85
2021/05/04 03:27:14;;;;;;;9.10;7.03;;;8.30;93.00;;;;;;5049238;28;20057;-89
2021/05/04 03:29:40;;;;;;;9.68;8.20;;;8.40;93.20;;;;;;5041064;28;20053;-85
2021/05/04 03:32:06;;;;;;;8.20;7.38;;;8.40;93.20;;;;;;5033353;28;20052;-85
2021/05/04 03:34:31;;;;;;;8.82;7.45;;;8.40;93.30;;;;;;5047970;28;20521;-86
2021/05/04 03:36:57;;;;;;;9.57;7.40;;;8.40;93.30;;;;;;5047087;28;20079;-86
2021/05/04 03:39:23;;;;;;;8.55;7.70;;;8.40;93.30;;;;;;5032443;28;20407;-85
2021/05/04 03:41:49;;;;;;;8.23;7.28;;;8.40;93.20;;;;;;5045860;28;20045;-87
2021/05/04 03:44:15;;;;;;;9.55;7.55;;;8.40;93.20;;;;;;5037498;28;20071;-90
2021/05/04 03:46:41;;;;;;;8.20;7.20;;;8.40;93.40;;;;;;5034947;28;20443;-85
2021/05/04 03:49:07;;;;;;;8.68;7.13;;;8.40;93.60;;;;;;5047102;28;20417;-85
2021/05/04 03:51:32;;;;;;;7.57;6.65;;;8.40;93.40;;;;;;5047272;28;20453;-85
2021/05/04 03:53:58;;;;;;;7.75;6.95;;;8.40;93.30;;;;;;5048192;28;20057;-86
2021/05/04 03:56:24;;;;;;;7.45;6.75;;;8.40;93.10;;;;;;5043117;28;20049;-85
2021/05/04 03:58:51;;;;;;;8.48;7.57;;;8.40;93.30;;;;;;5047174;28;20458;-85
2021/05/04 04:01:17;;;;;;;7.75;6.95;;;8.50;93.20;;;;;;5048190;28;20056;-89
2021/05/04 04:03:42;;;;;;;7.53;6.82;;;8.40;93.50;;;;;;5048266;28;20041;-86
2021/05/04 04:06:08;;;;;;;7.40;6.68;;;8.40;93.60;;;;;;5046916;28;20565;-85
2021/05/04 04:08:35;;;;;;;7.63;6.65;;;8.40;93.60;;;;;;5046254;28;20037;-85
2021/05/04 04:11:00;;;;;;;7.03;6.38;;;8.40;93.50;;;;;;5047545;28;20371;-86
2021/05/04 04:13:26;;;;;;;9.15;7.18;;;8.40;93.60;;;;;;5046692;28;20072;-86
2021/05/04 04:15:52;;;;;;;9.10;6.43;;;8.50;93.60;;;;;;5044296;28;20048;-85
2021/05/04 04:18:18;;;;;;;6.88;6.20;;;8.40;93.50;;;;;;5047922;28;20106;-91
2021/05/04 04:20:43;;;;;;;8.02;6.45;;;8.40;93.70;;;;;;5047905;28;20053;-85
2021/05/04 04:23:09;;;;;;;7.63;6.30;;;8.40;93.90;;;;;;5049469;28;20045;-85
2021/05/04 04:25:35;;;;;;;7.60;6.45;;;8.40;93.60;;;;;;5045853;28;20056;-85
2021/05/04 04:28:01;;;;;;;8.40;6.80;;;8.40;93.70;;;;;;5049070;28;20446;-87
2021/05/04 04:30:27;;;;;;;7.95;6.75;;;8.40;93.60;;;;;;5045476;28;20407;-85
2021/05/04 04:32:52;;;;;;;7.88;6.40;;;8.40;93.60;;;;;;5046510;28;20083;-86
2021/05/04 04:35:19;;;;;;;9.57;6.68;;;8.40;93.80;;;;;;5046387;28;20128;-89
2021/05/04 04:37:45;;;;;;;7.78;6.72;;;8.30;93.90;;;;;;5048447;28;20084;-86
2021/05/04 04:40:11;;;;;;;9.35;7.50;;;8.40;94.20;;;;;;5048599;28;20068;-85
2021/05/04 04:42:37;;;;;;;8.48;6.65;;;8.40;93.80;;;;;;5046434;28;20056;-86
2021/05/04 04:45:05;;;;;;;8.50;6.28;;;8.40;93.90;;;;;;5030884;28;20050;-85
2021/05/04 04:47:31;;;;;;;8.07;7.20;;;8.40;94.20;;;;;;5047075;28;20512;-86
2021/05/04 04:49:57;;;;;;;7.93;7.00;;;8.40;94.10;;;;;;5045788;28;20064;-85
2021/05/04 04:52:22;;;;;;;9.55;7.15;;;8.50;94.30;;;;;;5047296;28;20490;-89
2021/05/04 04:54:48;;;;;;;8.98;6.82;;;8.40;94.30;;;;;;5045156;28;20052;-85
2021/05/04 04:57:14;;;;;;;8.90;6.25;;;8.50;94.40;;;;;;5050477;28;20550;-85
2021/05/04 04:59:40;;;;;;;7.93;6.45;;;8.60;94.40;;;;;;5050790;28;20055;-87
2021/05/04 05:02:06;;;;;;;8.82;7.28;;;8.70;94.40;;;;;;5048990;28;20049;-86
2021/05/04 05:04:32;;;;;;;8.25;6.55;;;8.60;94.50;;;;;;5046578;28;20148;-85
2021/05/04 05:06:57;;;;;;;8.95;6.38;;;8.60;94.70;;;;;;5050321;28;20059;-85
2021/05/04 05:09:24;;;;;;;8.85;5.50;;;8.50;94.70;;;;;;5051243;28;20041;-86
2021/05/04 05:11:50;;;;;;;10.07;6.88;;;8.80;94.10;;;;;;5064610;28;20075;-84
2021/05/04 05:14:15;;;;;;;11.07;7.63;;;8.80;94.30;;;;;;5067929;28;20505;-85
2021/05/04 05:16:41;;;;;;;8.32;6.68;;;8.80;94.50;;;;;;5065850;28;20136;-86
2021/05/04 05:19:07;;;;;;;9.27;6.13;;;8.90;94.30;;;;;;5070148;28;20037;-85
2021/05/04 05:21:37;;;;;;;9.05;5.82;;;8.90;94.30;;;;;;5068106;28;20108;-84
2021/05/04 05:24:03;;;;;;;8.27;4.60;;;8.80;94.30;;;;;;5066065;28;20041;-85
2021/05/04 05:26:30;;;;;;;8.63;4.78;;;8.90;93.70;;;;;;5066946;28;20132;-83
2021/05/04 05:28:57;;;;;;;9.23;3.35;;;9.00;93.60;;;;;;5065412;28;20041;-84
2021/05/04 05:31:26;;;;;;;7.38;3.88;;;9.10;93.00;;;;;;5065374;28;20044;-91
2021/05/04 05:33:53;;;;;;;8.43;4.00;;;9.00;93.20;;;;;;5064552;28;20107;-84
2021/05/04 05:36:20;;;;;;;8.95;4.30;;;9.00;93.30;;;;;;5064718;28;20045;-92
2021/05/04 05:38:45;;;;;;;8.70;4.57;;;9.10;93.40;;;;;;5067669;28;20060;-84
2021/05/04 05:41:12;;;;;;;9.30;5.22;;;9.10;93.60;;;;;;5065887;28;20053;-92
2021/05/04 05:43:37;;;;;;;9.85;5.68;;;9.20;93.80;;;;;;5068613;28;20056;-85
2021/05/04 05:46:03;;;;;;;8.65;5.30;;;9.20;93.70;;;;;;5069941;28;20056;-84
2021/05/04 05:48:30;;;;;;;8.15;5.00;;;9.30;94.10;;;;;;5061841;28;20052;-85
2021/05/04 05:50:56;;;;;;;9.40;5.32;;;9.30;94.00;;;;;;5053075;28;20490;-85
2021/05/04 05:53:21;;;;;;;12.13;5.70;;;9.30;94.00;;;;;;5050630;28;20049;-89
2021/05/04 05:55:48;;;;;;;13.13;6.15;;;9.40;94.10;;;;;;5051941;28;20048;-84
2021/05/04 05:58:14;;;;;;;14.80;6.05;;;9.40;94.20;;;;;;5052293;28;20132;-86
2021/05/04 06:00:40;;;;;;;10.63;5.97;;;9.20;94.40;;;;;;5051518;28;20144;-87
2021/05/04 06:03:06;;;;;;;10.45;6.28;;;9.10;94.50;;;;;;5050630;28;20044;-85
2021/05/04 06:05:32;;;;;;;11.27;5.90;;;9.30;94.50;;;;;;5049295;28;20053;-85
2021/05/04 06:08:00;;;;;;;8.18;4.82;;;9.20;94.50;;;;;;5049846;28;20045;-85
2021/05/04 06:10:26;;;;;;;14.18;6.40;;;9.20;94.60;;;;;;5047348;28;20435;-85
2021/05/04 06:13:03;;;;;;;11.70;4.93;;;9.40;94.20;;;;;;5051109;28;20116;-85
2021/05/04 06:15:30;;;;;;;11.23;4.63;;;9.40;94.40;;;;;;5030505;28;20053;-87
2021/05/04 06:17:56;;;;;;;9.80;5.68;;;9.70;93.90;;;;;;5050806;28;20049;-87
2021/05/04 06:20:22;;;;;;;14.00;7.57;;;9.50;94.20;;;;;;5048769;28;20056;-89
2021/05/04 06:22:47;;;;;;;11.00;5.25;;;9.40;94.70;;;;;;5048839;28;20297;-85
2021/05/04 06:25:14;;;;;;;12.88;6.50;;;9.40;95.10;;;;;;5067537;28;20045;-86
2021/05/04 06:27:40;;;;;;;12.63;6.63;;;9.30;95.30;;;;;;5073075;28;20510;-85
2021/05/04 06:30:07;;;;;;;10.60;6.22;;;9.20;95.20;;;;;;5070281;28;20060;-85
2021/05/04 06:32:33;;;;;;;14.32;6.00;;;9.10;95.60;;;;;;5072635;28;20029;-92
2021/05/04 06:34:59;;;;;;;12.48;5.05;;;9.10;95.70;;;;;;5073834;28;20080;-90
2021/05/04 06:37:25;;;;;;;14.95;4.72;;;9.20;95.30;;;;;;5071132;28;20032;-90
2021/05/04 06:39:51;;;;;;;15.50;3.72;;;9.50;94.10;;;;;;5070400;28;20036;-83
2021/05/04 06:42:17;;;;;;;20.85;4.97;;;9.60;93.30;;;;;;5072487;28;20043;-83
2021/05/04 06:44:42;;;;;;;21.77;5.55;;;9.60;93.60;;;;;;5061132;28;20029;-86
2021/05/04 06:47:08;;;;;;;19.63;4.60;;;9.60;92.90;;;;;;5069038;28;20087;-87
2021/05/04 06:49:36;;;;;;;18.52;4.25;;;9.80;92.50;;;;;;5070159;28;20025;-85
2021/05/04 06:52:02;;;;;;;21.10;4.68;;;9.80;92.40;;;;;;5065479;28;20049;-85
2021/05/04 06:54:28;;;;;;;20.85;5.03;;;9.80;92.50;;;;;;5070143;28;20044;-92
2021/05/04 06:56:54;;;;;;;14.85;4.18;;;9.80;92.50;;;;;;5070603;28;20021;-85
2021/05/04 06:59:20;;;;;;;15.70;3.53;;;9.90;92.30;;;;;;5070578;28;20052;-81
2021/05/04 07:01:45;;;;;;;15.82;4.15;;;10.10;91.20;;;;;;5070395;28;20045;-86
2021/05/04 07:04:13;;;;;;;18.42;4.15;;;10.00;91.60;;;;;;5070934;28;20041;-84
2021/05/04 07:06:39;;;;;;;13.48;3.47;;;9.90;91.70;;;;;;5058326;28;20553;-85
2021/05/04 07:09:05;;;;;;;12.27;4.10;;;9.80;92.10;;;;;;5044363;28;20131;-86
2021/05/04 07:11:33;;;;;;;16.45;4.80;;;9.80;91.90;;;;;;5043686;28;20055;-83
2021/05/04 07:14:01;;;;;;;15.32;4.45;;;9.90;92.00;;;;;;5043252;28;20053;-91
2021/05/04 07:16:27;;;;;;;14.50;3.63;;;10.00;91.70;;;;;;5051224;28;20044;-90
2021/05/04 07:18:52;;;;;;;15.57;3.30;;;10.20;90.90;;;;;;5045144;28;20083;-87
2021/05/04 07:21:18;;;;;;;16.20;3.65;;;10.20;91.10;;;;;;5047526;28;20148;-90
2021/05/04 07:23:44;;;;;;;16.20;3.78;;;10.00;91.50;;;;;;5049226;28;20049;-89
2021/05/04 07:26:13;;;;;;;12.48;3.10;;;10.20;90.80;;;;;;5030951;28;20057;-89
2021/05/04 07:28:39;;;;;;;14.55;3.92;;;10.20;91.00;;;;;;5046075;28;20040;-88
2021/05/04 07:31:04;;;;;;;15.38;3.42;;;10.10;91.20;;;;;;5050254;28;20052;-88
2021/05/04 07:33:30;;;;;;;18.52;3.95;;;10.20;90.50;;;;;;5052292;28;20098;-88
2021/05/04 07:35:58;;;;;;;16.00;3.88;;;10.30;90.30;;;;;;5050694;28;20045;-89
2021/05/04 07:38:24;;;;;;;16.42;3.70;;;10.40;89.80;;;;;;5047585;28;20049;-89
2021/05/04 07:40:50;;;;;;;9.73;2.65;;;10.60;89.00;;;;;;5032429;28;20554;-89
2021/05/04 07:43:16;;;;;;;11.98;3.60;;;10.60;87.30;;;;;;5050655;28;20108;-86
2021/05/04 07:45:41;;;;;;;13.02;3.15;;;10.60;86.50;;;;;;5046851;28;20403;-85
2021/05/04 07:48:10;;;;;;;13.43;3.03;;;10.60;85.70;;;;;;5036106;28;20091;-84
2021/05/04 07:50:37;;;;;;;10.88;3.50;;;10.60;85.60;;;;;;5036341;28;20067;-84
2021/05/04 07:53:03;;;;;;;10.15;2.22;;;10.60;84.70;;;;;;5051472;28;20045;-85
2021/05/04 07:55:29;;;;;;;7.95;2.67;;;10.70;82.20;;;;;;5046793;28;20040;-89
2021/05/04 07:57:55;;;;;;;12.02;2.78;;;10.70;82.80;;;;;;5030682;28;20052;-86
2021/05/04 08:00:21;;;;;;;16.65;3.33;;;10.70;82.70;;;;;;5046583;28;20053;-86
2021/05/04 08:02:47;;;;;;;10.00;2.28;;;10.70;81.20;;;;;;5047568;28;20049;-85
2021/05/04 08:05:13;;;;;;;12.68;2.88;;;10.80;81.80;;;;;;5049896;28;20045;-86
2021/05/04 08:07:39;;;;;;;13.10;3.13;;;10.80;81.20;;;;;;5042206;28;20045;-86
2021/05/04 08:10:06;;;;;;;14.68;2.75;;;10.70;82.40;;;;;;5041596;28;20045;-85
2021/05/04 08:12:33;;;;;;;9.07;2.35;;;10.70;81.80;;;;;;5045914;28;20044;-86
2021/05/04 08:15:00;;;;;;;12.48;2.88;;;10.80;81.20;;;;;;5045223;28;20091;-84
2021/05/04 08:17:30;;;;;;;10.73;2.97;;;10.80;83.00;;;;;;5028274;28;20088;-89
2021/05/04 08:19:59;;;;;;;10.45;2.50;;;;;;;;;;5035949;28;20045;-84
2021/05/04 08:22:25;;;;;;;9.48;2.67;;;11.10;81.80;;;;;;5040719;28;20091;-86
2021/05/04 08:24:51;;;;;;;12.27;2.83;;;11.10;82.40;;;;;;5042718;28;20084;-85
2021/05/04 08:27:17;;;;;;;9.13;2.35;;;10.90;83.50;;;;;;5044705;28;20418;-85
2021/05/04 08:29:43;;;;;;;12.52;2.92;;;10.80;85.20;;;;;;5039208;28;20053;-84
2021/05/04 08:32:09;;;;;;;12.18;2.97;;;10.80;84.30;;;;;;5045322;28;20056;-85
2021/05/04 08:34:35;;;;;;;11.90;2.70;;;10.80;85.90;;;;;;5044622;28;20351;-87
2021/05/04 08:37:02;;;;;;;9.23;2.50;;;11.10;83.70;;;;;;5031537;28;20045;-84
2021/05/04 08:39:28;;;;;;;12.15;3.00;;;11.10;82.30;;;;;;5048037;28;20056;-84
2021/05/04 08:41:54;;;;;;;12.40;2.65;;;11.10;84.00;;;;;;5058601;28;20049;-83
2021/05/04 08:44:21;;;;;;;14.48;2.85;;;11.10;83.20;;;;;;5045062;28;20132;-82
2021/05/04 08:46:48;;;;;;;9.50;2.50;;;11.00;83.80;;;;;;5049382;28;23171;-82
2021/05/04 08:49:18;;;;;;;9.95;3.13;;;11.10;84.10;;;;;;5030179;28;20050;-83
2021/05/04 08:51:46;;;;;;;12.20;3.22;;;11.20;83.60;;;;;;5048689;28;20041;-84
2021/05/04 08:54:12;;;;;;;12.40;3.25;;;11.30;81.80;;;;;;5044679;28;20074;-84
2021/05/04 08:56:42;;;;;;;8.23;2.63;;;11.20;83.20;;;;;;5044336;28;20069;-83
2021/05/04 08:59:09;;;;;;;9.02;3.00;;;11.40;82.40;;;;;;5047884;28;20538;-83
2021/05/04 09:01:35;;;;;;;9.55;3.00;;;11.60;80.40;;;;;;5049920;28;20136;-82
2021/05/04 09:04:06;;;;;;;9.88;2.75;;;11.70;81.70;;;;;;5047051;28;20121;-84
2021/05/04 09:06:36;;;;;;;12.23;2.80;;;11.70;81.20;;;;;;5047995;28;20056;-87
2021/05/04 09:09:21;;;;;;;11.60;2.55;;;11.80;79.60;;;;;;5048758;28;20182;-84
2021/05/04 09:17:06;;;;;;;6.13;2.00;;;11.70;79.20;;;;;;5050240;28;20144;-82
2021/05/04 09:19:38;;;;;;;5.78;1.80;;;11.60;78.00;;;;;;5047298;28;20064;-85
2021/05/04 09:22:04;;;;;;;8.15;2.60;;;11.50;77.30;;;;;;5044216;28;20050;-86
2021/05/04 09:24:43;;;;;;;8.30;2.40;;;11.40;80.60;;;;;;5039827;28;20045;-86
2021/05/04 09:27:16;;;;;;;8.68;1.92;;;11.50;79.80;;;;;;5050000;28;20505;-83
2021/05/04 09:29:44;;;;;;;7.47;2.40;;;11.50;78.80;;;;;;5051225;28;20048;-85
2021/05/04 09:32:21;;;;;;;9.23;2.55;;;11.50;78.60;;;;;;5052117;28;20048;-83
2021/05/04 09:34:50;;;;;;;8.60;1.95;;;11.50;77.10;;;;;;5033614;28;20045;-86
2021/05/04 09:37:39;;;;;;;10.85;2.65;;;11.40;80.00;;;;;;5051992;28;20490;-85
2021/05/04 09:40:34;;;;;;;9.95;2.60;;;10.90;84.40;;;;;;5040117;28;20180;-88
2021/05/04 09:43:06;;;;;;;8.13;2.55;;;10.40;87.40;;;;;;5021874;28;20057;-86
2021/05/04 09:45:33;;;;;;;7.75;2.47;;;10.00;90.00;;;;;;5031666;28;20045;-87
2021/05/04 09:48:18;;;;;;;8.27;1.90;;;9.80;90.40;;;;;;5011428;28;20164;-85
2021/05/04 09:50:55;;;;;;;8.43;2.20;;;9.70;89.80;;;;;;4971659;28;20049;-86
2021/05/04 09:53:39;;;;;;;8.32;1.83;;;9.50;89.80;;;;;;4999433;28;20050;-86
2021/05/04 09:56:05;;;;;;;6.80;1.73;;;9.40;89.90;;;;;;5018286;28;20144;-85
2021/05/04 09:58:35;;;;;;;2.20;1.10;;;9.30;89.90;;;;;;4998854;28;20068;-89
2021/05/04 10:01:03;;;;;;;5.03;1.60;;;9.20;90.70;;;;;;5013719;28;20368;-88
2021/05/04 10:03:29;;;;;;;3.92;1.55;;;9.10;91.00;;;;;;5012162;28;20057;-86
2021/05/04 10:05:59;;;;;;;8.32;2.38;;;9.20;91.40;;;;;;5012237;28;20132;-85
2021/05/04 10:08:28;;;;;;;10.38;2.80;;;9.30;91.40;;;;;;5021252;28;20054;-84
2021/05/04 10:10:57;;;;;;;8.82;2.70;;;9.40;92.00;;;;;;5008583;28;20037;-83
2021/05/04 10:13:26;;;;;;;12.40;3.80;;;9.40;92.10;;;;;;5014948;28;20391;-85
2021/05/04 10:15:53;;;;;;;9.75;2.40;;;9.50;92.40;;;;;;5033900;28;20045;-85
2021/05/04 10:18:21;;;;;;;4.55;1.40;;;9.90;91.20;;;;;;5008922;28;20381;-86
2021/05/04 10:20:47;;;;;;;4.70;1.10;;;10.20;86.60;;;;;;5029173;28;20074;-89
2021/05/04 10:23:12;;;;;;;4.40;1.73;;;9.80;86.90;;;;;;5029611;28;20046;-89
2021/05/04 10:25:40;;;;;;;3.38;0.85;;;9.20;89.60;;;;;;5029098;28;20046;-87
2021/05/04 10:28:08;;;;;;;4.85;1.45;;;8.70;90.50;;;;;;5009207;28;20069;-86
2021/05/04 10:30:35;;;;;;;3.15;1.40;;;8.50;91.20;;;;;;5030898;28;20081;-88
2021/05/04 10:33:08;;;;;;;4.30;1.55;;;8.20;92.10;;;;;;5017768;28;20049;-85
2021/05/04 10:35:35;;;;;;;5.85;1.40;;;8.20;92.80;;;;;;4993289;28;20075;-87
2021/05/04 10:38:14;;;;;;;4.15;1.48;;;8.30;92.20;;;;;;5022878;28;20045;-89
2021/05/04 10:40:46;;;;;;;6.25;2.47;;;8.30;92.30;;;;;;5011110;28;20049;-85
2021/05/04 10:43:21;;;;;;;6.82;1.90;;;8.50;92.70;;;;;;5012579;28;20103;-87
2021/05/04 10:45:48;;;;;;;7.47;1.95;;;8.70;92.30;;;;;;5047583;28;20048;-86
2021/05/04 10:48:14;;;;;;;7.55;2.25;;;8.90;91.80;;;;;;5050655;28;20055;-86
2021/05/04 10:50:51;;;;;;;7.85;2.25;;;9.30;90.70;;;;;;5050084;28;20461;-88
2021/05/04 10:53:20;;;;;;;7.47;2.10;;;9.50;91.10;;;;;;5049855;28;20053;-87
2021/05/04 10:55:52;;;;;;;6.78;2.03;;;9.90;90.60;;;;;;5051483;28;20049;-87
2021/05/04 10:58:19;;;;;;;9.70;2.60;;;10.20;89.40;;;;;;5043095;28;20137;-86
2021/05/04 11:01:07;;;;;;;6.55;2.08;;;10.10;87.50;;;;;;5039493;28;20056;-86
2021/05/04 11:03:33;;;;;;;8.38;2.30;;;10.10;87.10;;;;;;5035037;28;20049;-86
2021/05/04 11:06:06;;;;;;;5.30;1.95;;;10.20;84.80;;;;;;5046762;28;20041;-87
2021/05/04 11:08:41;;;;;;;7.50;2.25;;;10.10;85.40;;;;;;5051010;28;20075;-89
2021/05/04 11:11:26;;;;;;;;;;;10.10;84.90;;;;;;5049266;28;20079;-86
2021/05/04 11:14:03;;;;;;;3.03;1.10;;;9.60;85.30;;;;;;5049881;28;19921;-87
2021/05/04 11:16:48;;;;;;;4.70;1.60;;;8.90;90.10;;;;;;5035079;28;20056;-85
2021/05/04 11:19:19;;;;;;;3.83;1.40;;;8.70;90.80;;;;;;5035781;28;20132;-84
2021/05/04 11:21:47;;;;;;;2.22;1.40;;;8.80;90.40;;;;;;5045352;28;20048;-86
2021/05/04 11:24:17;;;;;;;3.17;1.88;;;8.80;90.30;;;;;;5049584;28;20049;-88
2021/05/04 11:26:56;;;;;;;4.88;2.60;;;8.80;91.10;;;;;;5048378;28;20055;-89
2021/05/04 11:29:23;;;;;;;2.47;1.23;;;8.70;91.70;;;;;;5049059;28;20053;-87
2021/05/04 11:31:52;;;;;;;5.05;1.77;;;8.80;91.90;;;;;;5033050;28;20049;-88
2021/05/04 11:34:36;;;;;;;3.58;1.40;;;8.90;91.80;;;;;;5049139;28;20060;-84
2021/05/04 11:37:03;;;;;;;5.18;2.10;;;8.90;91.10;;;;;;5027963;28;20057;-87
2021/05/04 11:39:28;;;;;;;4.45;1.67;;;9.10;90.60;;;;;;5034078;28;20096;-87
2021/05/04 11:42:00;;;;;;;8.25;1.98;;;9.20;90.30;;;;;;5033667;28;20049;-88
2021/05/04 11:44:36;;;;;;;6.03;2.10;;;9.30;90.70;;;;;;5042149;28;20141;-87
2021/05/04 11:47:24;;;;;;;3.55;1.85;;;9.40;90.70;;;;;;5037011;28;20056;-86
2021/05/04 11:49:50;;;;;;;9.40;2.80;;;9.50;88.60;;;;;;5016461;28;20049;-86
2021/05/04 11:52:17;;;;;;;7.47;2.63;;;9.50;90.00;;;;;;5023612;28;20049;-87
2021/05/04 11:54:47;;;;;;;6.22;2.15;;;9.50;88.00;;;;;;5012671;28;20111;-88
2021/05/04 11:57:13;;;;;;;3.33;1.42;;;9.40;88.40;;;;;;4990762;28;20064;-87
2021/05/04 11:59:39;;;;;;;6.60;2.80;;;9.00;89.20;;;;;;5003335;28;20054;-89
2021/05/04 12:02:05;;;;;;;5.40;2.00;;;8.60;90.50;;;;;;5012335;28;20099;-86
2021/05/04 12:04:50;;;;;;;5.47;2.63;;;8.50;90.90;;;;;;5005594;28;20112;-87
2021/05/04 12:07:43;;;;;;;4.40;2.10;;;8.40;91.20;;;;;;5011073;28;20053;-86
2021/05/04 12:10:33;;;;;;;5.72;2.30;;;8.70;90.60;;;;;;5015567;28;20055;-85
2021/05/04 12:13:12;;;;;;;4.03;2.28;;;8.80;90.70;;;;;;4985104;28;20060;-87
2021/05/04 12:15:43;;;;;;;5.57;2.25;;;8.80;91.00;;;;;;5030176;28;20084;-88
2021/05/04 12:18:15;;;;;;;6.45;2.92;;;9.00;91.10;;;;;;5031390;28;20085;-87
2021/05/04 12:21:02;;;;;;;5.85;2.83;;;9.10;91.10;;;;;;5012280;28;20463;-90
2021/05/04 12:23:31;;;;;;;5.70;2.78;;;9.30;89.30;;;;;;4991149;28;20049;-86
2021/05/04 12:26:06;;;;;;;5.90;2.35;;;9.50;89.10;;;;;;5030555;28;20566;-86
2021/05/04 12:28:54;;;;;;;5.90;2.78;;;9.60;87.20;;;;;;5015216;28;20057;-85
2021/05/04 12:31:31;;;;;;;5.70;2.53;;;9.80;86.10;;;;;;5011217;28;20049;-86
2021/05/04 12:33:57;;;;;;;8.13;3.72;;;9.80;84.50;;;;;;5031280;28;20395;-87
2021/05/04 12:36:35;;;;;;;3.90;2.42;;;9.80;86.40;;;;;;5013436;28;20395;-88
2021/05/04 12:39:06;;;;;;;6.50;3.20;;;10.00;84.40;;;;;;5042448;28;20045;-87
2021/05/04 12:41:35;;;;;;;7.05;2.40;;;10.00;84.70;;;;;;5002242;28;20508;-87
2021/05/04 12:44:21;;;;;;;6.93;2.50;;;9.90;85.60;;;;;;5034288;28;20330;-86
2021/05/04 12:47:00;;;;;;;9.63;2.40;;;10.00;84.40;;;;;;5023254;28;20064;-84
2021/05/04 12:49:38;;;;;;;4.15;2.05;;;9.90;83.40;;;;;;5040204;28;20048;-88
2021/05/04 12:52:08;;;;;;;3.72;1.42;;;9.70;84.20;;;;;;5058342;28;20060;-87
2021/05/04 12:54:39;;;;;;;3.92;2.05;;;9.40;86.40;;;;;;5050796;28;20098;-84
2021/05/04 12:57:27;;;;;;;3.75;2.15;;;9.40;86.00;;;;;;5034021;28;20049;-86
2021/05/04 12:59:53;;;;;;;2.92;1.60;;;9.40;87.90;;;;;;5033603;28;20046;-84